Time;durP1;ratioP1;P1;durP2;ratioP2;P2;SDS_P1;SDS_P2;PMS_P1;PMS_P2;Temp;Humidity;BMP_temperature;BMP_pressure;BME280_temperature;BME280_humidity;BME280_pressure;Samples;Min_cycle;Max_cycle;Signal;HPM_P1;HPM_P2
2021/06/08 00:00:21;;;;;;;13.82;9.70;;;18.80;99.90;;;;;;5072490;28;20109;-65
2021/06/08 00:02:46;;;;;;;13.50;9.82;;;18.80;99.90;;;;;;5053902;28;20028;-66
2021/06/08 00:05:12;;;;;;;14.57;10.68;;;18.80;99.90;;;;;;5072192;28;20024;-64
2021/06/08 00:07:38;;;;;;;12.00;9.45;;;18.80;99.90;;;;;;5072748;28;20029;-64
2021/06/08 00:10:05;;;;;;;9.90;8.93;;;18.70;99.90;;;;;;5071663;28;20049;-64
2021/06/08 00:12:30;;;;;;;11.30;8.90;;;18.70;99.90;;;;;;5054319;28;20029;-64
2021/06/08 00:14:56;;;;;;;10.50;8.95;;;18.80;99.90;;;;;;5071834;28;20369;-64
2021/06/08 00:17:22;;;;;;;9.43;8.23;;;18.70;99.90;;;;;;5072021;28;20037;-64
2021/06/08 00:19:47;;;;;;;11.10;9.40;;;18.70;99.90;;;;;;5071454;28;20074;-65
2021/06/08 00:22:14;;;;;;;9.20;8.30;;;18.70;99.90;;;;;;5072339;28;20033;-64
2021/06/08 00:24:40;;;;;;;9.43;8.43;;;18.80;99.90;;;;;;5072173;28;20174;-64
2021/06/08 00:27:06;;;;;;;10.25;8.93;;;18.70;99.90;;;;;;5053239;28;20165;-64
2021/06/08 00:29:32;;;;;;;12.63;9.13;;;18.70;99.90;;;;;;5053798;28;20123;-64
2021/06/08 00:31:58;;;;;;;16.25;8.75;;;18.70;99.90;;;;;;5071297;28;20100;-65
2021/06/08 00:34:23;;;;;;;16.38;10.30;;;18.80;99.90;;;;;;5071945;28;20067;-65
2021/06/08 00:36:49;;;;;;;10.68;8.85;;;18.70;99.90;;;;;;5071267;28;20043;-65
2021/06/08 00:39:15;;;;;;;11.45;8.80;;;18.70;99.90;;;;;;5071714;28;20471;-65
2021/06/08 00:41:43;;;;;;;9.85;8.07;;;18.70;99.90;;;;;;5071542;28;20021;-65
2021/06/08 00:44:12;;;;;;;10.80;8.55;;;18.70;99.90;;;;;;5071131;28;20130;-65
2021/06/08 00:46:43;;;;;;;10.73;8.38;;;18.70;99.90;;;;;;5071652;28;20454;-65
2021/06/08 00:49:08;;;;;;;9.57;8.55;;;18.80;99.90;;;;;;5053301;28;20040;-65
2021/06/08 00:51:34;;;;;;;9.98;8.35;;;18.70;99.90;;;;;;5053048;28;20048;-65
2021/06/08 00:54:06;;;;;;;11.32;9.02;;;18.80;99.90;;;;;;5052655;28;20025;-65
2021/06/08 00:56:32;;;;;;;;;;;18.70;99.90;;;;;;5071849;28;20048;-65
2021/06/08 00:58:57;;;;;;;11.43;9.35;;;18.70;99.90;;;;;;5052730;28;19916;-66
2021/06/08 01:01:23;;;;;;;9.25;8.05;;;18.70;99.90;;;;;;5053277;28;20368;-66
2021/06/08 01:03:48;;;;;;;11.68;8.48;;;18.70;99.90;;;;;;5052710;28;20031;-66
2021/06/08 01:06:14;;;;;;;11.68;9.35;;;18.80;99.90;;;;;;5053099;28;20035;-66
2021/06/08 01:08:40;;;;;;;15.98;10.73;;;18.80;99.90;;;;;;5070321;28;20058;-65
2021/06/08 01:11:05;;;;;;;10.77;9.13;;;18.80;99.90;;;;;;5052548;28;20303;-66
2021/06/08 01:13:31;;;;;;;12.07;9.23;;;18.70;99.90;;;;;;5053133;28;20028;-65
2021/06/08 01:15:57;;;;;;;11.05;8.55;;;18.80;99.90;;;;;;5070207;28;20038;-65
2021/06/08 01:18:22;;;;;;;11.63;9.60;;;18.70;99.90;;;;;;5052868;28;20036;-66
2021/06/08 01:20:59;;;;;;;10.10;8.75;;;18.70;99.90;;;;;;5052158;28;20028;-66
2021/06/08 01:23:24;;;;;;;14.10;9.48;;;18.70;99.90;;;;;;5052856;28;20452;-65
2021/06/08 01:25:50;;;;;;;11.20;9.25;;;18.60;99.90;;;;;;5052093;28;20066;-66
2021/06/08 01:28:17;;;;;;;21.13;9.60;;;18.60;99.90;;;;;;5071050;28;20040;-66
2021/06/08 01:30:43;;;;;;;10.45;9.20;;;18.60;99.90;;;;;;5052680;28;20084;-66
2021/06/08 01:33:09;;;;;;;14.27;9.38;;;18.60;99.90;;;;;;5051971;28;20024;-64
2021/06/08 01:35:39;;;;;;;10.23;8.70;;;18.60;99.90;;;;;;5070658;28;20158;-64
2021/06/08 01:38:05;;;;;;;10.32;8.35;;;18.60;99.90;;;;;;5069771;28;20139;-65
2021/06/08 01:40:31;;;;;;;11.60;9.38;;;18.60;99.90;;;;;;5070385;28;20047;-65
2021/06/08 01:42:56;;;;;;;11.65;9.55;;;18.60;99.90;;;;;;5051769;28;20044;-65
2021/06/08 01:45:22;;;;;;;11.25;8.98;;;18.50;99.90;;;;;;5052261;28;20389;-65
2021/06/08 01:47:48;;;;;;;12.90;8.93;;;18.60;99.90;;;;;;5051956;28;20112;-70
2021/06/08 01:50:14;;;;;;;12.07;9.93;;;18.60;99.90;;;;;;5070466;28;20052;-65
2021/06/08 01:52:54;;;;;;;9.57;8.68;;;18.60;99.90;;;;;;5070576;28;20118;-65
2021/06/08 01:55:34;;;;;;;11.95;9.50;;;18.50;99.90;;;;;;5052485;28;20050;-65
2021/06/08 01:58:12;;;;;;;12.52;10.05;;;18.50;99.90;;;;;;5069579;28;20056;-65
2021/06/08 02:00:46;;;;;;;9.35;8.48;;;18.50;99.90;;;;;;5070085;28;20028;-65
2021/06/08 02:03:32;;;;;;;12.68;10.20;;;18.60;99.90;;;;;;5051321;28;20373;-65
2021/06/08 02:06:13;;;;;;;11.52;10.35;;;18.50;99.90;;;;;;5051217;28;20027;-65
2021/06/08 02:08:40;;;;;;;11.77;10.50;;;18.40;99.90;;;;;;5044628;28;20049;-65
2021/06/08 02:11:10;;;;;;;11.00;9.35;;;18.50;99.90;;;;;;5051955;28;20028;-65
2021/06/08 02:13:41;;;;;;;11.55;9.23;;;18.50;99.90;;;;;;5052909;28;20021;-66
2021/06/08 02:16:25;;;;;;;;;;;18.50;99.90;;;;;;5052762;28;20048;-66
2021/06/08 02:18:51;;;;;;;11.80;8.73;;;18.50;99.90;;;;;;5069212;28;20026;-66
2021/06/08 02:21:28;;;;;;;10.57;9.40;;;18.40;99.90;;;;;;5052052;28;20470;-66
2021/06/08 02:23:55;;;;;;;12.85;9.48;;;18.50;99.90;;;;;;5051758;28;20043;-66
2021/06/08 02:26:24;;;;;;;11.38;8.90;;;18.40;99.90;;;;;;5069984;28;20136;-66
2021/06/08 02:28:50;;;;;;;10.88;8.40;;;18.50;99.90;;;;;;5070164;28;20028;-70
2021/06/08 02:31:18;;;;;;;12.60;9.50;;;18.50;99.90;;;;;;5070218;28;20025;-65
2021/06/08 02:33:48;;;;;;;10.27;9.10;;;18.50;99.90;;;;;;5052263;28;20090;-65
2021/06/08 02:36:14;;;;;;;11.38;8.30;;;18.50;99.90;;;;;;5069412;28;20082;-66
2021/06/08 02:38:42;;;;;;;10.60;9.25;;;18.50;99.90;;;;;;5069799;28;20040;-66
2021/06/08 02:41:08;;;;;;;18.17;9.75;;;18.40;99.90;;;;;;5069911;28;20029;-65
2021/06/08 02:43:35;;;;;;;15.05;10.07;;;18.40;99.90;;;;;;5051839;28;20074;-65
2021/06/08 02:46:03;;;;;;;10.75;9.15;;;18.40;99.90;;;;;;5051224;28;20047;-65
2021/06/08 02:48:29;;;;;;;11.98;9.38;;;18.40;99.90;;;;;;5069865;28;20078;-65
2021/06/08 02:50:56;;;;;;;10.48;9.15;;;18.30;99.90;;;;;;5050282;28;20033;-64
2021/06/08 02:53:24;;;;;;;10.70;9.35;;;18.40;99.90;;;;;;5069820;28;20082;-64
2021/06/08 02:55:51;;;;;;;11.63;9.65;;;18.40;99.90;;;;;;5051688;28;20032;-64
2021/06/08 02:58:18;;;;;;;13.32;10.20;;;18.30;99.90;;;;;;5051499;28;20033;-64
2021/06/08 03:00:44;;;;;;;13.15;11.13;;;18.30;99.90;;;;;;5069697;28;20048;-65
2021/06/08 03:03:13;;;;;;;16.05;9.45;;;18.30;99.90;;;;;;5068682;28;20460;-65
2021/06/08 03:05:44;;;;;;;12.88;9.60;;;18.30;99.90;;;;;;5069364;28;20382;-64
2021/06/08 03:08:24;;;;;;;11.68;9.80;;;18.40;99.90;;;;;;5068809;28;20064;-64
2021/06/08 03:10:52;;;;;;;13.02;9.68;;;18.30;99.90;;;;;;5051652;28;20385;-64
2021/06/08 03:13:21;;;;;;;11.15;10.00;;;18.40;99.90;;;;;;5069967;28;20112;-65
2021/06/08 03:15:50;;;;;;;10.90;9.65;;;18.30;99.90;;;;;;5069414;28;20037;-65
2021/06/08 03:18:21;;;;;;;13.27;10.32;;;18.40;99.90;;;;;;5069370;28;20140;-65
2021/06/08 03:20:54;;;;;;;12.65;9.50;;;18.40;99.90;;;;;;5069445;28;20029;-65
2021/06/08 03:23:22;;;;;;;16.70;9.85;;;18.20;99.90;;;;;;5069524;28;20029;-65
2021/06/08 03:25:49;;;;;;;13.50;10.52;;;18.30;99.90;;;;;;5069527;28;20127;-65
2021/06/08 03:28:18;;;;;;;10.95;9.60;;;18.30;99.90;;;;;;5050742;28;20032;-64
2021/06/08 03:30:44;;;;;;;11.25;10.13;;;18.30;99.90;;;;;;5052514;28;20043;-64
2021/06/08 03:33:11;;;;;;;14.02;9.23;;;18.30;99.90;;;;;;5054158;28;20024;-65
2021/06/08 03:35:38;;;;;;;11.82;9.32;;;18.30;99.90;;;;;;5054979;28;20044;-65
2021/06/08 03:38:03;;;;;;;13.75;9.38;;;18.30;99.90;;;;;;5072809;28;20033;-66
2021/06/08 03:40:30;;;;;;;15.05;9.98;;;18.30;99.90;;;;;;5072862;28;20120;-65
2021/06/08 03:42:56;;;;;;;12.30;10.30;;;18.40;99.90;;;;;;5072120;28;20029;-65
2021/06/08 03:45:22;;;;;;;11.07;9.98;;;18.30;99.90;;;;;;5072645;28;20021;-64
2021/06/08 03:47:48;;;;;;;11.13;9.07;;;18.20;99.90;;;;;;5072784;28;20039;-64
2021/06/08 03:50:15;;;;;;;11.93;10.30;;;18.20;99.90;;;;;;5072333;28;20303;-64
2021/06/08 03:52:43;;;;;;;12.02;10.73;;;18.20;99.90;;;;;;5054433;28;20139;-64
2021/06/08 03:55:09;;;;;;;14.85;10.32;;;18.30;99.90;;;;;;5071652;28;20017;-63
2021/06/08 03:57:39;;;;;;;11.45;9.40;;;18.20;99.90;;;;;;5072052;28;20466;-64
2021/06/08 04:00:09;;;;;;;11.07;9.73;;;18.20;99.90;;;;;;5071714;28;20044;-64
2021/06/08 04:02:38;;;;;;;14.10;10.18;;;18.20;99.90;;;;;;5054621;28;20082;-64
2021/06/08 04:05:05;;;;;;;12.25;10.02;;;18.30;99.90;;;;;;5071701;28;20024;-64
2021/06/08 04:07:30;;;;;;;11.57;10.18;;;18.30;99.90;;;;;;5054005;28;20119;-64
2021/06/08 04:09:56;;;;;;;12.95;10.05;;;18.30;99.90;;;;;;5053802;28;20111;-65
2021/06/08 04:12:22;;;;;;;11.88;9.50;;;18.30;99.90;;;;;;5054379;28;20113;-65
2021/06/08 04:14:49;;;;;;;11.50;10.27;;;18.30;99.90;;;;;;5072273;28;20021;-65
2021/06/08 04:17:16;;;;;;;14.15;10.05;;;18.40;99.90;;;;;;5071653;28;20099;-64
2021/06/08 04:19:43;;;;;;;15.88;10.75;;;18.30;99.90;;;;;;5071850;28;20036;-65
2021/06/08 04:22:09;;;;;;;12.48;9.65;;;18.30;99.90;;;;;;5071319;28;20039;-65
2021/06/08 04:24:35;;;;;;;12.45;10.35;;;18.30;99.90;;;;;;5053954;28;20337;-64
2021/06/08 04:27:01;;;;;;;12.32;9.73;;;18.40;99.90;;;;;;5071066;28;20025;-64
2021/06/08 04:29:27;;;;;;;12.48;10.35;;;18.40;99.90;;;;;;5071533;28;20347;-64
2021/06/08 04:31:55;;;;;;;14.93;11.25;;;18.40;99.90;;;;;;5053794;28;20048;-64
2021/06/08 04:34:22;;;;;;;14.57;10.63;;;18.40;99.90;;;;;;5071024;28;20020;-64
2021/06/08 04:36:49;;;;;;;12.30;10.93;;;18.40;99.90;;;;;;5053666;28;20024;-65
2021/06/08 04:39:15;;;;;;;12.90;10.95;;;18.50;99.90;;;;;;5070734;28;20037;-64
2021/06/08 04:41:41;;;;;;;14.48;10.25;;;18.50;99.90;;;;;;5071481;28;20035;-65
2021/06/08 04:44:07;;;;;;;11.65;10.15;;;18.50;99.90;;;;;;5071018;28;20029;-64
2021/06/08 04:46:38;;;;;;;13.60;10.48;;;18.50;99.90;;;;;;5071467;28;20469;-65
2021/06/08 04:49:04;;;;;;;;;;;18.40;99.90;;;;;;5053286;28;20055;-65
2021/06/08 04:51:30;;;;;;;11.13;9.93;;;18.50;99.90;;;;;;5053225;28;19924;-68
2021/06/08 04:53:56;;;;;;;19.48;10.23;;;18.50;99.90;;;;;;5071141;28;20039;-65
2021/06/08 04:56:21;;;;;;;29.02;13.50;;;18.50;99.90;;;;;;5052082;28;20063;-64
2021/06/08 04:58:47;;;;;;;14.48;10.93;;;18.50;99.90;;;;;;5053085;28;20052;-65
2021/06/08 05:01:24;;;;;;;14.73;10.90;;;18.60;99.90;;;;;;5070114;28;20508;-64
2021/06/08 05:03:55;;;;;;;15.82;11.27;;;18.50;99.90;;;;;;5071230;28;20130;-65
2021/06/08 05:06:28;;;;;;;12.88;10.30;;;18.60;99.90;;;;;;5052428;28;20107;-65
2021/06/08 05:08:58;;;;;;;11.63;10.13;;;18.60;99.90;;;;;;5053107;28;20105;-64
2021/06/08 05:11:32;;;;;;;12.90;11.52;;;18.60;99.90;;;;;;5052049;28;20029;-64
2021/06/08 05:14:00;;;;;;;12.75;11.45;;;18.70;99.90;;;;;;5071126;28;20025;-64
2021/06/08 05:16:28;;;;;;;12.07;10.30;;;18.60;99.90;;;;;;5052467;28;20029;-64
2021/06/08 05:18:54;;;;;;;13.98;11.35;;;18.70;99.90;;;;;;5070602;28;20036;-65
2021/06/08 05:21:22;;;;;;;13.73;11.00;;;18.70;99.90;;;;;;5069592;28;20342;-65
2021/06/08 05:23:50;;;;;;;15.65;11.15;;;18.70;99.90;;;;;;5070676;28;20028;-65
2021/06/08 05:26:17;;;;;;;11.43;9.95;;;18.80;99.90;;;;;;5070140;28;20079;-65
2021/06/08 05:28:42;;;;;;;12.82;10.60;;;18.80;99.90;;;;;;5052253;28;20036;-65
2021/06/08 05:31:09;;;;;;;12.48;10.38;;;18.90;99.90;;;;;;5051423;28;20412;-66
2021/06/08 05:33:34;;;;;;;14.45;10.32;;;19.00;99.90;;;;;;5052173;28;20021;-65
2021/06/08 05:36:01;;;;;;;16.52;10.80;;;19.10;99.90;;;;;;5070606;28;20043;-64
2021/06/08 05:38:34;;;;;;;12.88;11.43;;;19.10;99.90;;;;;;5070036;28;20033;-65
2021/06/08 05:41:08;;;;;;;14.32;11.07;;;19.10;99.90;;;;;;5052039;28;20051;-65
2021/06/08 05:43:34;;;;;;;17.63;11.98;;;19.10;99.90;;;;;;5052064;28;20025;-64
2021/06/08 05:46:00;;;;;;;12.90;10.57;;;19.10;99.90;;;;;;5069981;28;20367;-65
2021/06/08 05:48:29;;;;;;;22.13;11.20;;;19.10;99.90;;;;;;5069357;28;20055;-65
2021/06/08 05:50:56;;;;;;;11.50;10.20;;;19.10;99.90;;;;;;5069139;28;20029;-66
2021/06/08 05:53:23;;;;;;;14.95;10.70;;;19.20;99.90;;;;;;5050865;28;20795;-65
2021/06/08 05:55:50;;;;;;;12.93;11.30;;;19.20;99.90;;;;;;5051776;28;20466;-65
2021/06/08 05:58:15;;;;;;;15.00;11.07;;;19.20;99.90;;;;;;5069242;28;20040;-65
2021/06/08 06:00:42;;;;;;;12.50;11.02;;;19.30;99.90;;;;;;5051601;28;20025;-65
2021/06/08 06:03:08;;;;;;;15.20;11.68;;;19.30;99.90;;;;;;5051277;28;20031;-66
2021/06/08 06:05:37;;;;;;;13.93;11.77;;;19.30;99.90;;;;;;5051064;28;20035;-65
2021/06/08 06:08:05;;;;;;;19.05;11.30;;;19.40;99.90;;;;;;5051992;28;20036;-75
2021/06/08 06:10:31;;;;;;;13.88;11.20;;;19.40;99.90;;;;;;5051892;28;20032;-65
2021/06/08 06:12:57;;;;;;;14.63;11.35;;;19.30;99.90;;;;;;5069466;28;20028;-65
2021/06/08 06:15:26;;;;;;;14.93;11.07;;;19.40;99.90;;;;;;5069625;28;20474;-66
2021/06/08 06:17:53;;;;;;;12.70;11.32;;;19.30;99.90;;;;;;5069723;28;20465;-65
2021/06/08 06:20:19;;;;;;;13.35;11.40;;;19.40;99.90;;;;;;5050790;28;20385;-65
2021/06/08 06:22:45;;;;;;;14.27;11.25;;;19.40;99.90;;;;;;5051196;28;20109;-65
2021/06/08 06:25:12;;;;;;;14.48;11.13;;;19.50;99.90;;;;;;5068321;28;20171;-65
2021/06/08 06:27:40;;;;;;;15.52;11.02;;;19.60;99.90;;;;;;5069532;28;20039;-65
2021/06/08 06:30:08;;;;;;;21.20;12.48;;;19.60;99.90;;;;;;5068670;28;20017;-66
2021/06/08 06:32:34;;;;;;;12.55;11.18;;;19.70;99.90;;;;;;5050854;28;20115;-64
2021/06/08 06:35:02;;;;;;;14.38;10.25;;;19.70;99.90;;;;;;5050602;28;20128;-65
2021/06/08 06:37:29;;;;;;;17.33;12.45;;;19.70;99.90;;;;;;5050625;28;20085;-64
2021/06/08 06:39:57;;;;;;;13.80;11.95;;;19.80;99.90;;;;;;5051043;28;20029;-66
2021/06/08 06:42:25;;;;;;;13.00;10.65;;;19.90;99.90;;;;;;5068198;28;20043;-65
2021/06/08 06:44:53;;;;;;;14.43;10.63;;;19.90;99.90;;;;;;5051425;28;20404;-65
2021/06/08 06:47:19;;;;;;;14.00;11.05;;;20.00;99.90;;;;;;5069090;28;20036;-65
2021/06/08 06:49:45;;;;;;;13.48;10.18;;;20.00;99.90;;;;;;5069566;28;20032;-64
2021/06/08 06:52:12;;;;;;;14.73;11.48;;;20.00;99.90;;;;;;5068221;28;20060;-64
2021/06/08 06:54:39;;;;;;;13.32;10.75;;;20.10;99.90;;;;;;5051430;28;20029;-65
2021/06/08 06:57:06;;;;;;;14.77;11.82;;;20.10;99.90;;;;;;5051326;28;20186;-65
2021/06/08 06:59:32;;;;;;;16.92;11.32;;;20.10;99.90;;;;;;5069411;28;20035;-65
2021/06/08 07:01:58;;;;;;;12.80;11.20;;;20.10;99.90;;;;;;5069308;28;20028;-66
2021/06/08 07:04:25;;;;;;;13.20;11.07;;;20.10;99.90;;;;;;5068514;28;20031;-65
2021/06/08 07:06:53;;;;;;;12.80;11.38;;;20.20;99.90;;;;;;5053799;28;20465;-64
2021/06/08 07:09:24;;;;;;;13.07;10.38;;;20.10;99.90;;;;;;5053995;28;20036;-64
2021/06/08 07:11:51;;;;;;;;;;;20.10;99.90;;;;;;5055320;28;20416;-65
2021/06/08 07:14:18;;;;;;;13.07;11.30;;;20.20;99.90;;;;;;5054351;28;19904;-65
2021/06/08 07:16:44;;;;;;;14.95;10.93;;;20.20;99.90;;;;;;5072671;28;20036;-65
2021/06/08 07:19:15;;;;;;;8.93;7.10;;;20.40;99.90;;;;;;5072416;28;20037;-50
2021/06/08 07:21:43;;;;;;;13.63;10.18;;;20.80;99.90;;;;;;5073444;28;20084;-50
2021/06/08 07:24:11;;;;;;;10.57;6.18;;;20.90;99.90;;;;;;5054494;28;20025;-52
2021/06/08 07:26:38;;;;;;;7.85;6.95;;;21.10;99.90;;;;;;5072942;28;20434;-51
2021/06/08 07:29:08;;;;;;;8.52;7.63;;;21.30;99.90;;;;;;5073074;28;20081;-52
2021/06/08 07:31:55;;;;;;;16.65;7.38;;;21.50;99.90;;;;;;5071371;28;20029;-51
2021/06/08 07:34:44;;;;;;;11.77;9.55;;;21.80;99.90;;;;;;5072348;28;20029;-51
2021/06/08 07:37:16;;;;;;;16.27;10.32;;;21.40;99.90;;;;;;5072169;28;20025;-51
2021/06/08 07:39:49;;;;;;;10.70;9.57;;;21.50;99.90;;;;;;5056224;28;20049;-51
2021/06/08 07:42:22;;;;;;;9.93;7.88;;;21.60;99.90;;;;;;5065698;28;20493;-51
2021/06/08 07:44:58;;;;;;;13.50;9.55;;;21.70;99.90;;;;;;5051628;28;20024;-51
2021/06/08 07:47:26;;;;;;;12.25;8.13;;;21.80;99.90;;;;;;5053214;28;20055;-51
2021/06/08 07:49:54;;;;;;;10.50;8.02;;;21.90;99.90;;;;;;5072286;28;20028;-51
2021/06/08 07:52:21;;;;;;;13.75;9.43;;;22.00;99.90;;;;;;5069274;28;20438;-50
2021/06/08 07:54:48;;;;;;;9.45;7.35;;;22.00;99.90;;;;;;5070745;28;20339;-51
2021/06/08 07:57:14;;;;;;;12.23;7.85;;;22.00;99.90;;;;;;5069786;28;20028;-51
2021/06/08 07:59:41;;;;;;;11.68;7.97;;;22.30;99.90;;;;;;5070227;28;20052;-49
2021/06/08 08:02:10;;;;;;;13.05;8.15;;;22.40;99.90;;;;;;5072047;28;20044;-51
2021/06/08 08:04:46;;;;;;;11.27;7.28;;;22.40;99.90;;;;;;5072094;28;20025;-51
2021/06/08 08:07:13;;;;;;;9.60;8.60;;;22.60;99.90;;;;;;5071046;28;20032;-50
2021/06/08 08:09:39;;;;;;;9.00;7.68;;;22.60;99.90;;;;;;5071838;28;20043;-50
2021/06/08 08:12:06;;;;;;;11.73;9.10;;;22.60;99.90;;;;;;5071733;28;20100;-50
2021/06/08 08:14:32;;;;;;;9.52;8.52;;;22.50;99.90;;;;;;5070970;28;20038;-50
2021/06/08 08:17:00;;;;;;;8.45;7.60;;;22.60;99.90;;;;;;5071173;28;20058;-49
2021/06/08 08:19:26;;;;;;;10.30;9.05;;;22.70;99.90;;;;;;5071132;28;20062;-51
2021/06/08 08:21:52;;;;;;;13.10;9.80;;;22.70;99.90;;;;;;5071428;28;20027;-51
2021/06/08 08:24:18;;;;;;;11.98;8.98;;;22.60;99.90;;;;;;5068895;28;20059;-50
2021/06/08 08:26:44;;;;;;;15.25;8.50;;;22.80;99.90;;;;;;5071367;28;20078;-50
2021/06/08 08:29:10;;;;;;;12.43;8.88;;;22.90;99.90;;;;;;5071566;28;20028;-51
2021/06/08 08:31:37;;;;;;;12.05;9.93;;;23.00;99.90;;;;;;5070814;28;20458;-54
2021/06/08 08:34:04;;;;;;;11.38;8.15;;;23.20;99.90;;;;;;5069817;28;20101;-50
2021/06/08 08:36:33;;;;;;;9.93;7.25;;;23.20;99.90;;;;;;5070350;28;20032;-50
2021/06/08 08:39:00;;;;;;;9.65;7.10;;;23.30;99.90;;;;;;5070505;28;20127;-50
2021/06/08 08:41:27;;;;;;;15.70;8.82;;;23.40;99.90;;;;;;5069339;28;20033;-50
2021/06/08 08:43:53;;;;;;;13.02;7.80;;;23.60;99.90;;;;;;5070991;28;20035;-50
2021/06/08 08:46:20;;;;;;;9.20;6.43;;;23.80;99.90;;;;;;5070243;28;20024;-58
2021/06/08 08:48:52;;;;;;;18.30;7.55;;;23.80;99.90;;;;;;5070983;28;20123;-50
2021/06/08 08:51:19;;;;;;;9.38;8.27;;;23.70;99.90;;;;;;5070397;28;20436;-51
2021/06/08 08:53:46;;;;;;;8.32;7.50;;;23.70;99.90;;;;;;5069916;28;20462;-50
2021/06/08 08:56:15;;;;;;;9.30;6.63;;;23.80;99.90;;;;;;5070936;28;20025;-52
2021/06/08 08:58:41;;;;;;;14.07;7.88;;;23.90;99.90;;;;;;5070594;28;20131;-51
2021/06/08 09:01:07;;;;;;;7.70;6.90;;;24.00;99.90;;;;;;5070749;28;20025;-50
2021/06/08 09:03:33;;;;;;;17.50;8.98;;;24.00;99.90;;;;;;5068123;28;20204;-51
2021/06/08 09:06:00;;;;;;;8.48;6.40;;;24.10;99.90;;;;;;5068845;28;20031;-51
2021/06/08 09:08:26;;;;;;;9.27;8.07;;;24.10;99.90;;;;;;5069614;28;20370;-50
2021/06/08 09:10:54;;;;;;;13.52;6.78;;;24.10;99.90;;;;;;5068666;28;20023;-51
2021/06/08 09:13:21;;;;;;;8.15;6.93;;;24.20;99.90;;;;;;5067887;28;20052;-50
2021/06/08 09:15:48;;;;;;;6.95;6.20;;;24.30;99.90;;;;;;5069123;28;20040;-50
2021/06/08 09:18:15;;;;;;;10.18;7.18;;;24.50;99.90;;;;;;5070433;28;20041;-50
2021/06/08 09:20:41;;;;;;;9.57;7.30;;;24.70;99.90;;;;;;5070391;28;20037;-50
2021/06/08 09:23:09;;;;;;;10.10;8.02;;;24.80;99.90;;;;;;5057148;28;20174;-51
2021/06/08 09:25:37;;;;;;;7.45;6.65;;;24.90;99.90;;;;;;5051152;28;20232;-57
2021/06/08 09:28:19;;;;;;;9.13;7.75;;;25.00;99.90;;;;;;5067616;28;20479;-51
2021/06/08 09:30:46;;;;;;;9.65;7.38;;;25.00;99.90;;;;;;5068682;28;20119;-53
2021/06/08 09:33:25;;;;;;;8.57;7.78;;;25.10;99.90;;;;;;5068364;28;20025;-51
2021/06/08 09:35:55;;;;;;;10.45;7.28;;;25.20;99.90;;;;;;5050417;28;20127;-51
2021/06/08 09:38:21;;;;;;;6.15;5.65;;;25.20;99.90;;;;;;5050201;28;20089;-54
2021/06/08 09:40:48;;;;;;;6.53;5.70;;;25.20;99.90;;;;;;5068537;28;20089;-51
2021/06/08 09:43:15;;;;;;;8.82;7.63;;;25.30;99.90;;;;;;5051114;28;20488;-51
2021/06/08 09:45:49;;;;;;;7.45;6.65;;;25.20;99.90;;;;;;5050395;28;20044;-51
2021/06/08 09:48:16;;;;;;;7.65;6.35;;;25.20;99.90;;;;;;5049987;28;20035;-60
2021/06/08 09:50:47;;;;;;;8.52;6.57;;;25.20;99.90;;;;;;5068465;28;20175;-59
2021/06/08 09:53:27;;;;;;;10.73;7.53;;;25.20;99.90;;;;;;5050505;28;20089;-52
2021/06/08 09:55:55;;;;;;;11.52;7.85;;;25.30;99.90;;;;;;5068180;28;20104;-51
2021/06/08 09:58:23;;;;;;;13.55;7.90;;;25.20;99.90;;;;;;5049270;28;20043;-51
2021/06/08 10:01:27;;;;;;;10.65;7.07;;;25.20;99.90;;;;;;5067031;28;20025;-51
2021/06/08 10:03:57;;;;;;;7.18;6.57;;;25.20;99.90;;;;;;5005575;28;20112;-50
2021/06/08 10:06:37;;;;;;;10.32;7.32;;;25.10;99.90;;;;;;5058629;28;20044;-55
2021/06/08 10:09:09;;;;;;;10.90;7.40;;;25.20;99.90;;;;;;5068424;28;20043;-50
2021/06/08 10:11:38;;;;;;;9.82;7.18;;;25.50;99.90;;;;;;5050116;28;20446;-50
2021/06/08 10:14:11;;;;;;;10.13;7.00;;;25.40;99.90;;;;;;5069089;28;20052;-51
2021/06/08 10:16:37;;;;;;;8.95;7.43;;;25.60;99.90;;;;;;5068064;28;20029;-51
2021/06/08 10:19:04;;;;;;;14.52;7.70;;;25.60;99.70;;;;;;5050453;28;20048;-50
2021/06/08 10:21:47;;;;;;;9.20;7.38;;;25.80;99.80;;;;;;5068020;28;20199;-52
2021/06/08 10:24:16;;;;;;;6.55;5.95;;;26.00;99.80;;;;;;5050530;28;20031;-51
2021/06/08 10:26:50;;;;;;;6.65;6.15;;;26.10;99.70;;;;;;5068606;28;20496;-51
2021/06/08 10:29:17;;;;;;;7.50;6.80;;;26.00;99.50;;;;;;5049271;28;20048;-53
2021/06/08 10:31:43;;;;;;;10.32;7.18;;;26.00;99.90;;;;;;5050083;28;20024;-52
2021/06/08 10:34:11;;;;;;;9.07;8.18;;;26.20;99.90;;;;;;5068540;28;20109;-52
2021/06/08 10:36:39;;;;;;;8.35;7.63;;;26.10;99.50;;;;;;5067886;28;20028;-52
2021/06/08 10:39:07;;;;;;;8.52;7.72;;;26.20;99.90;;;;;;5068364;28;20032;-51
2021/06/08 10:41:35;;;;;;;9.95;7.30;;;26.20;99.90;;;;;;5071451;28;20303;-51
2021/06/08 10:44:02;;;;;;;9.48;7.90;;;26.10;99.90;;;;;;5054319;28;20074;-51
2021/06/08 10:46:32;;;;;;;8.32;7.47;;;25.90;99.90;;;;;;5071958;28;20036;-52
2021/06/08 10:48:59;;;;;;;11.68;8.18;;;25.90;99.90;;;;;;5072529;28;20039;-54
2021/06/08 10:51:27;;;;;;;9.10;8.20;;;26.10;99.90;;;;;;5053383;28;20113;-52
2021/06/08 10:53:57;;;;;;;8.45;7.10;;;26.20;99.90;;;;;;5054142;28;20464;-51
2021/06/08 10:56:25;;;;;;;13.30;8.32;;;26.20;99.90;;;;;;5053807;28;20028;-51
2021/06/08 10:58:59;;;;;;;9.25;7.85;;;26.20;99.90;;;;;;5072224;28;20063;-51
2021/06/08 11:01:31;;;;;;;13.32;7.95;;;26.10;99.90;;;;;;5072108;28;20056;-52
2021/06/08 11:03:59;;;;;;;9.65;7.55;;;26.10;99.90;;;;;;5054396;28;20112;-51
2021/06/08 11:06:37;;;;;;;7.53;6.65;;;26.00;99.90;;;;;;5072120;28;20082;-52
2021/06/08 11:09:12;;;;;;;6.68;5.97;;;26.10;99.90;;;;;;5049959;28;20374;-52
2021/06/08 11:12:01;;;;;;;12.90;7.55;;;26.30;99.90;;;;;;5034010;28;20021;-51
2021/06/08 11:14:33;;;;;;;9.70;7.85;;;26.30;99.70;;;;;;5051716;28;20021;-53
2021/06/08 11:17:05;;;;;;;12.85;7.70;;;26.30;99.50;;;;;;5034105;28;20126;-52
2021/06/08 11:19:41;;;;;;;8.02;7.22;;;26.50;99.70;;;;;;5032874;28;20037;-52
2021/06/08 11:22:06;;;;;;;10.15;8.00;;;26.50;99.70;;;;;;5057613;28;20121;-51
2021/06/08 11:24:38;;;;;;;7.47;6.78;;;26.40;99.10;;;;;;5071282;28;20426;-50
2021/06/08 11:27:04;;;;;;;10.23;7.80;;;26.50;99.50;;;;;;5071534;28;20108;-52
2021/06/08 11:29:57;;;;;;;8.48;7.60;;;26.50;99.10;;;;;;5042417;28;20033;-50
2021/06/08 11:32:42;;;;;;;8.55;7.63;;;26.40;99.40;;;;;;5032977;28;20028;-52
2021/06/08 11:35:22;;;;;;;9.43;8.30;;;26.40;99.10;;;;;;5033447;28;20025;-52
2021/06/08 11:37:51;;;;;;;7.30;6.60;;;26.60;98.60;;;;;;5033250;28;20518;-51
2021/06/08 11:40:38;;;;;;;7.70;6.90;;;26.80;98.90;;;;;;5032755;28;20047;-52
2021/06/08 11:43:09;;;;;;;8.32;7.55;;;26.80;98.40;;;;;;5053242;28;20025;-51
2021/06/08 11:45:37;;;;;;;8.82;7.53;;;26.80;98.50;;;;;;5052373;28;20461;-51
2021/06/08 11:48:04;;;;;;;7.78;6.80;;;26.70;98.00;;;;;;5034104;28;20381;-50
2021/06/08 11:50:41;;;;;;;7.80;7.05;;;26.70;98.40;;;;;;5033404;28;20462;-51
2021/06/08 11:53:09;;;;;;;10.80;7.43;;;26.90;98.10;;;;;;5051430;28;20067;-51
2021/06/08 11:55:35;;;;;;;11.57;7.13;;;26.90;98.00;;;;;;5033955;28;20138;-51
2021/06/08 11:58:01;;;;;;;11.80;7.18;;;27.00;98.10;;;;;;5052538;28;20420;-50
2021/06/08 12:00:50;;;;;;;7.68;6.60;;;27.20;98.20;;;;;;5051557;28;20052;-50
2021/06/08 12:03:28;;;;;;;9.27;6.85;;;27.00;98.00;;;;;;5052228;28;20048;-52
2021/06/08 12:05:54;;;;;;;8.23;7.35;;;27.10;97.80;;;;;;5034213;28;20058;-52
2021/06/08 12:08:32;;;;;;;8.63;6.70;;;27.30;97.40;;;;;;5033697;28;20040;-53
2021/06/08 12:11:17;;;;;;;7.03;6.18;;;27.20;97.80;;;;;;5034032;28;20029;-51
2021/06/08 12:13:44;;;;;;;7.90;7.18;;;27.30;97.40;;;;;;5033625;28;20120;-51
2021/06/08 12:16:14;;;;;;;16.90;7.50;;;27.40;96.90;;;;;;5033679;28;20029;-52
2021/06/08 12:18:40;;;;;;;9.15;6.95;;;27.20;96.50;;;;;;5016593;28;20236;-51
2021/06/08 12:21:10;;;;;;;7.65;6.00;;;27.50;97.10;;;;;;5033545;28;20067;-51
2021/06/08 12:23:38;;;;;;;10.00;6.43;;;27.70;96.90;;;;;;5051506;28;20032;-51
2021/06/08 12:26:12;;;;;;;7.70;6.85;;;27.80;96.30;;;;;;5033329;28;20359;-52
2021/06/08 12:28:40;;;;;;;8.68;6.95;;;27.90;96.90;;;;;;5050993;28;20376;-52
2021/06/08 12:31:18;;;;;;;6.15;5.63;;;27.90;95.80;;;;;;5051335;28;20036;-51
2021/06/08 12:33:45;;;;;;;9.60;6.63;;;27.90;96.60;;;;;;5051403;28;20031;-52
2021/06/08 12:36:12;;;;;;;27.35;7.80;;;27.90;95.90;;;;;;5050980;28;20033;-52
2021/06/08 12:38:48;;;;;;;8.25;7.05;;;27.90;96.20;;;;;;5050250;28;20390;-52
2021/06/08 12:41:14;;;;;;;35.20;8.65;;;27.80;96.40;;;;;;5033797;28;20504;-52
2021/06/08 12:43:42;;;;;;;9.68;6.75;;;27.70;95.80;;;;;;5050939;28;20064;-51
2021/06/08 12:46:08;;;;;;;10.27;6.38;;;27.60;96.20;;;;;;5051150;28;20021;-51